Time;durP1;ratioP1;P1;durP2;ratioP2;P2;SDS_P1;SDS_P2;PMS_P1;PMS_P2;Temp;Humidity;BMP_temperature;BMP_pressure;BME280_temperature;BME280_humidity;BME280_pressure;Samples;Min_cycle;Max_cycle;Signal;HPM_P1;HPM_P2
2023/03/17 00:01:50;;;;;;;8.57;6.00;;;4.50;99.90;;;;;;6229777;28;20050;-78
2023/03/17 00:04:52;;;;;;;7.53;4.00;;;4.50;99.90;;;;;;6230826;28;20133;-79
2023/03/17 00:07:55;;;;;;;5.45;3.67;;;4.50;99.90;;;;;;6230594;28;20056;-79
2023/03/17 00:10:57;;;;;;;6.10;3.45;;;4.50;99.90;;;;;;6232252;28;20396;-78
2023/03/17 00:13:58;;;;;;;4.30;3.50;;;4.50;99.90;;;;;;6233404;28;20054;-78
2023/03/17 00:17:01;;;;;;;6.65;3.85;;;4.60;99.90;;;;;;6231097;28;20050;-78
2023/03/17 00:20:04;;;;;;;6.03;4.72;;;4.60;99.90;;;;;;6231552;28;20049;-78
2023/03/17 00:23:11;;;;;;;4.55;3.47;;;4.70;99.90;;;;;;6233460;28;20083;-78
2023/03/17 00:26:14;;;;;;;9.57;4.20;;;4.70;99.90;;;;;;6230284;28;20046;-78
2023/03/17 00:29:16;;;;;;;10.15;4.75;;;4.70;99.90;;;;;;6230701;28;20523;-78
2023/03/17 00:32:20;;;;;;;12.30;6.40;;;4.70;99.90;;;;;;6228609;28;20116;-78
2023/03/17 00:35:24;;;;;;;24.20;12.40;;;4.70;99.90;;;;;;6225535;28;20042;-77
2023/03/17 00:38:26;;;;;;;26.63;11.57;;;4.70;99.90;;;;;;6225120;28;20501;-77
2023/03/17 00:41:28;;;;;;;29.92;12.52;;;4.80;99.90;;;;;;6224551;28;20054;-77
2023/03/17 00:44:30;;;;;;;31.88;12.68;;;4.80;99.90;;;;;;6223540;28;20053;-77
2023/03/17 00:47:33;;;;;;;35.28;14.57;;;4.90;99.90;;;;;;6224532;28;20050;-77
2023/03/17 00:50:35;;;;;;;24.40;12.73;;;4.90;99.90;;;;;;6224177;28;20049;-77
2023/03/17 00:53:37;;;;;;;21.63;11.35;;;4.80;99.90;;;;;;6223845;28;20057;-77
2023/03/17 00:56:40;;;;;;;17.73;9.45;;;4.80;99.90;;;;;;6224172;28;20049;-77
2023/03/17 00:59:42;;;;;;;20.70;10.55;;;4.90;99.90;;;;;;6224139;28;20045;-77
2023/03/17 01:02:46;;;;;;;20.67;9.98;;;4.90;99.90;;;;;;6224390;28;20412;-77
2023/03/17 01:05:48;;;;;;;23.13;11.20;;;4.90;99.90;;;;;;6223512;28;20050;-77
2023/03/17 01:08:51;;;;;;;15.18;8.98;;;4.90;99.90;;;;;;6224084;28;20072;-77
2023/03/17 01:11:53;;;;;;;20.95;9.68;;;5.00;99.90;;;;;;6224462;28;20050;-77
2023/03/17 01:14:55;;;;;;;21.60;9.52;;;4.90;99.90;;;;;;6223371;28;20058;-78
2023/03/17 01:17:59;;;;;;;12.68;7.32;;;4.90;99.90;;;;;;6223970;28;20497;-77
2023/03/17 01:21:01;;;;;;;15.90;7.07;;;4.80;99.90;;;;;;6221861;28;20045;-77
2023/03/17 01:27:19;;;;;;;6.35;4.95;;;4.80;99.90;;;;;;6221606;28;20168;-77
2023/03/17 01:30:27;;;;;;;6.28;4.18;;;4.70;99.90;;;;;;6223693;28;20050;-77
2023/03/17 01:33:30;;;;;;;6.57;4.18;;;4.70;99.90;;;;;;6222689;28;20168;-77
2023/03/17 01:36:33;;;;;;;6.63;3.47;;;4.70;99.90;;;;;;6223071;28;20048;-77
2023/03/17 01:39:34;;;;;;;10.52;5.13;;;4.60;99.90;;;;;;6222645;28;20555;-77
2023/03/17 01:42:36;;;;;;;4.63;3.50;;;4.60;99.90;;;;;;6223441;28;20054;-77
2023/03/17 01:46:28;;;;;;;5.55;3.20;;;4.50;99.90;;;;;;6222812;28;20048;-77
2023/03/17 01:49:34;;;;;;;5.95;4.30;;;4.50;99.90;;;;;;6222811;28;20046;-77
2023/03/17 01:52:40;;;;;;;5.07;3.15;;;4.50;99.90;;;;;;6222696;28;20045;-77
2023/03/17 01:55:44;;;;;;;10.43;4.65;;;4.50;99.90;;;;;;6221921;28;20045;-77
2023/03/17 01:58:49;;;;;;;9.98;3.78;;;4.40;99.90;;;;;;6223919;28;20054;-77
2023/03/17 02:01:57;;;;;;;7.97;3.53;;;4.50;99.90;;;;;;6223072;28;20058;-77
2023/03/17 02:05:01;;;;;;;7.57;4.90;;;4.40;99.90;;;;;;6222605;28;20050;-77
2023/03/17 02:08:10;;;;;;;9.40;5.18;;;4.40;99.90;;;;;;6223324;28;20050;-77
2023/03/17 02:11:13;;;;;;;6.95;4.53;;;4.40;99.90;;;;;;6224303;28;20046;-77
2023/03/17 02:14:14;;;;;;;10.05;5.25;;;4.30;99.90;;;;;;6222931;28;20763;-77
2023/03/17 02:17:16;;;;;;;8.02;4.28;;;4.30;99.90;;;;;;6222204;28;20520;-77
2023/03/17 02:20:55;;;;;;;7.05;4.65;;;4.30;99.90;;;;;;6221927;28;20053;-77
2023/03/17 02:24:02;;;;;;;4.88;4.38;;;4.30;99.90;;;;;;6221862;28;20052;-77
2023/03/17 02:27:08;;;;;;;7.13;4.18;;;4.30;99.90;;;;;;6221891;28;20053;-77
2023/03/17 02:30:13;;;;;;;4.85;4.45;;;4.30;99.90;;;;;;6222547;28;20049;-77
2023/03/17 02:33:16;;;;;;;6.18;4.72;;;4.20;99.90;;;;;;6221369;28;20124;-77
2023/03/17 02:36:17;;;;;;;7.70;5.38;;;4.20;99.90;;;;;;6221910;28;20054;-77
2023/03/17 02:39:21;;;;;;;7.47;3.97;;;4.30;99.90;;;;;;6221956;28;20045;-77
2023/03/17 02:42:22;;;;;;;8.55;4.30;;;4.30;99.90;;;;;;6222428;28;20050;-77
2023/03/17 02:45:24;;;;;;;5.13;3.53;;;4.20;99.90;;;;;;6221934;28;20049;-77
2023/03/17 02:48:26;;;;;;;4.90;3.22;;;4.10;99.90;;;;;;6221285;28;20409;-77
2023/03/17 02:51:28;;;;;;;5.45;3.83;;;4.00;99.90;;;;;;6221317;28;20046;-77
2023/03/17 02:54:31;;;;;;;5.15;4.50;;;4.00;99.90;;;;;;6221454;28;20046;-78
2023/03/17 02:57:33;;;;;;;6.47;4.15;;;3.90;99.90;;;;;;6221803;28;20053;-77
2023/03/17 03:00:35;;;;;;;10.80;4.97;;;3.90;99.90;;;;;;6221540;28;20069;-78
2023/03/17 03:03:37;;;;;;;5.97;4.60;;;3.80;99.90;;;;;;6221927;28;20046;-77
2023/03/17 03:06:41;;;;;;;9.23;5.60;;;3.70;99.90;;;;;;6222019;28;20049;-77
2023/03/17 03:09:44;;;;;;;6.63;5.90;;;3.70;99.90;;;;;;6221213;28;20424;-77
2023/03/17 03:12:47;;;;;;;6.20;4.78;;;3.60;99.90;;;;;;6221368;28;20046;-77
2023/03/17 03:15:49;;;;;;;6.32;4.18;;;3.60;99.90;;;;;;6223998;28;20420;-76
2023/03/17 03:18:51;;;;;;;7.07;5.00;;;3.50;99.90;;;;;;6226471;28;20050;-77
2023/03/17 03:21:52;;;;;;;9.27;6.18;;;3.50;99.90;;;;;;6227068;28;20053;-77
2023/03/17 03:24:55;;;;;;;7.03;4.22;;;3.40;99.90;;;;;;6226063;28;20046;-76
2023/03/17 03:27:57;;;;;;;7.78;4.22;;;3.40;99.90;;;;;;6225411;28;20050;-76
2023/03/17 03:30:58;;;;;;;10.98;6.72;;;3.30;99.90;;;;;;6225890;28;20045;-76
2023/03/17 03:34:00;;;;;;;11.02;7.65;;;3.20;99.90;;;;;;6226986;28;20054;-76
2023/03/17 03:37:02;;;;;;;7.32;4.88;;;3.00;99.90;;;;;;6226738;28;20041;-76
2023/03/17 03:40:07;;;;;;;7.90;4.97;;;3.00;99.90;;;;;;6226070;28;20050;-76
2023/03/17 03:43:09;;;;;;;8.85;5.35;;;2.90;99.90;;;;;;6225886;28;20096;-77
2023/03/17 03:46:11;;;;;;;6.45;5.22;;;2.80;99.90;;;;;;6225941;28;20151;-77
2023/03/17 03:49:13;;;;;;;8.32;3.85;;;2.70;99.90;;;;;;6225153;28;20046;-77
2023/03/17 03:52:14;;;;;;;7.85;6.22;;;2.70;99.90;;;;;;6225599;28;20045;-77
2023/03/17 03:55:17;;;;;;;8.13;5.32;;;2.60;99.90;;;;;;6225284;28;20045;-77
2023/03/17 03:58:19;;;;;;;10.75;4.35;;;2.60;99.90;;;;;;6226423;28;20068;-77
2023/03/17 04:01:21;;;;;;;5.78;4.68;;;2.60;99.90;;;;;;6225150;28;20124;-77
2023/03/17 04:04:23;;;;;;;6.32;4.68;;;2.50;99.90;;;;;;6224930;28;20048;-76
2023/03/17 04:07:24;;;;;;;9.85;5.63;;;2.50;99.90;;;;;;6225206;28;20049;-77
2023/03/17 04:10:27;;;;;;;6.78;4.22;;;2.40;99.90;;;;;;6225613;28;20057;-76
2023/03/17 04:13:29;;;;;;;9.25;4.78;;;2.40;99.90;;;;;;6224854;28;20068;-77
2023/03/17 04:16:31;;;;;;;8.55;4.82;;;2.30;99.90;;;;;;6225486;28;20053;-76
2023/03/17 04:19:33;;;;;;;6.70;4.50;;;2.20;99.90;;;;;;6224955;28;20056;-77
2023/03/17 04:22:35;;;;;;;6.15;4.65;;;2.20;99.90;;;;;;6225318;28;20056;-77
2023/03/17 04:25:38;;;;;;;10.70;5.22;;;2.10;99.90;;;;;;6223862;28;20172;-77
2023/03/17 04:28:40;;;;;;;8.88;6.60;;;2.10;99.90;;;;;;6223918;28;20042;-77
2023/03/17 04:31:42;;;;;;;8.50;4.63;;;2.10;99.90;;;;;;6224408;28;20068;-77
2023/03/17 04:34:43;;;;;;;5.95;4.00;;;2.00;99.90;;;;;;6225098;28;20057;-77
2023/03/17 04:37:45;;;;;;;8.45;4.75;;;2.00;99.90;;;;;;6224077;28;20562;-76
2023/03/17 04:40:49;;;;;;;7.25;5.35;;;1.90;99.90;;;;;;6224286;28;20058;-77
2023/03/17 04:43:51;;;;;;;7.45;4.53;;;1.80;99.90;;;;;;6224133;28;20053;-76
2023/03/17 04:46:53;;;;;;;8.30;5.35;;;1.80;99.90;;;;;;6224343;28;20046;-77
2023/03/17 04:49:54;;;;;;;4.68;4.13;;;1.70;99.90;;;;;;6224106;28;20042;-77
2023/03/17 04:52:56;;;;;;;8.40;5.03;;;1.70;99.90;;;;;;6224095;28;20511;-77
2023/03/17 04:55:59;;;;;;;7.63;4.63;;;1.60;99.90;;;;;;6223508;28;20054;-77
2023/03/17 04:59:01;;;;;;;6.55;4.70;;;1.60;99.90;;;;;;6223774;28;20046;-77
2023/03/17 05:02:03;;;;;;;7.05;5.70;;;1.50;99.90;;;;;;6224396;28;20062;-77
2023/03/17 05:05:05;;;;;;;7.35;4.90;;;1.50;99.90;;;;;;6223230;28;20053;-77
2023/03/17 05:08:07;;;;;;;7.32;5.28;;;1.50;99.90;;;;;;6223989;28;20038;-78
2023/03/17 05:11:10;;;;;;;7.63;4.75;;;1.50;99.90;;;;;;6224170;28;20050;-77
2023/03/17 05:14:12;;;;;;;6.30;4.70;;;1.50;99.90;;;;;;6223841;28;20548;-78
2023/03/17 05:17:15;;;;;;;11.00;7.38;;;1.50;99.90;;;;;;6223774;28;20045;-77
2023/03/17 05:20:17;;;;;;;5.68;4.93;;;1.50;99.90;;;;;;6223955;28;20662;-77
2023/03/17 05:23:19;;;;;;;4.90;4.43;;;1.60;99.90;;;;;;6224679;28;20041;-79
2023/03/17 05:26:22;;;;;;;10.85;6.22;;;1.60;99.90;;;;;;6225192;28;20054;-78
2023/03/17 05:29:24;;;;;;;8.13;6.05;;;1.60;99.90;;;;;;6224797;28;20048;-78
2023/03/17 05:32:25;;;;;;;7.70;5.25;;;1.60;99.90;;;;;;6224170;28;20049;-78
2023/03/17 05:35:27;;;;;;;5.72;3.83;;;1.50;99.90;;;;;;6224345;28;20042;-78
2023/03/17 05:38:29;;;;;;;10.10;4.18;;;1.50;99.90;;;;;;6224173;28;20172;-78
2023/03/17 05:41:32;;;;;;;6.47;4.72;;;1.50;99.90;;;;;;6223876;28;20050;-78
2023/03/17 05:44:34;;;;;;;7.00;4.63;;;1.60;99.90;;;;;;6224090;28;20042;-78
2023/03/17 05:47:36;;;;;;;12.88;4.68;;;1.60;99.90;;;;;;6223555;28;20441;-78
2023/03/17 05:50:38;;;;;;;6.88;4.22;;;1.60;99.90;;;;;;6224331;28;20046;-78
2023/03/17 05:53:40;;;;;;;4.35;3.70;;;1.60;99.90;;;;;;6224500;28;20049;-78
2023/03/17 05:56:43;;;;;;;16.58;5.75;;;1.60;99.90;;;;;;6223941;28;20052;-78
2023/03/17 05:59:45;;;;;;;5.90;3.60;;;1.60;99.90;;;;;;6224467;28;20046;-78
2023/03/17 06:02:47;;;;;;;8.75;3.78;;;1.70;99.90;;;;;;6225224;28;20046;-78
2023/03/17 06:05:49;;;;;;;7.78;4.63;;;1.70;99.90;;;;;;6223866;28;20049;-78
2023/03/17 06:08:51;;;;;;;4.43;3.17;;;1.70;99.90;;;;;;6223628;28;20049;-78
2023/03/17 06:11:54;;;;;;;4.45;3.70;;;1.70;99.90;;;;;;6223126;28;20042;-78
2023/03/17 06:14:55;;;;;;;5.47;3.85;;;1.80;99.90;;;;;;6223487;28;20050;-78
2023/03/17 06:17:58;;;;;;;11.60;3.45;;;1.80;99.90;;;;;;6224101;28;20125;-78
2023/03/17 06:20:59;;;;;;;4.90;3.78;;;1.90;99.90;;;;;;6223421;28;20535;-78
2023/03/17 06:24:01;;;;;;;5.65;4.35;;;2.00;99.90;;;;;;6223671;28;20045;-78
2023/03/17 06:27:04;;;;;;;4.18;3.20;;;2.10;99.90;;;;;;6224576;28;20056;-78
2023/03/17 06:30:08;;;;;;;12.75;5.72;;;2.20;99.90;;;;;;6224264;28;20049;-78
2023/03/17 06:33:10;;;;;;;4.05;3.58;;;2.30;99.90;;;;;;6223079;28;20397;-78
2023/03/17 06:36:12;;;;;;;5.47;3.47;;;2.50;99.90;;;;;;6223382;28;20057;-78
2023/03/17 06:39:15;;;;;;;10.13;4.13;;;2.60;99.90;;;;;;6222236;28;20839;-78
2023/03/17 06:42:18;;;;;;;4.82;4.28;;;2.80;99.90;;;;;;6223467;28;20049;-78
2023/03/17 06:45:20;;;;;;;6.00;3.53;;;3.00;99.90;;;;;;6223106;28;20310;-78
2023/03/17 06:48:23;;;;;;;5.03;3.05;;;3.20;99.90;;;;;;6223345;28;20412;-78
2023/03/17 06:51:25;;;;;;;5.03;3.30;;;3.30;99.90;;;;;;6222426;28;20046;-78
2023/03/17 06:54:27;;;;;;;10.77;4.35;;;3.50;99.90;;;;;;6224979;28;20061;-79
2023/03/17 06:57:31;;;;;;;4.72;3.28;;;3.70;99.90;;;;;;6224761;28;20050;-78
2023/03/17 07:00:32;;;;;;;8.00;4.20;;;4.00;99.90;;;;;;6224602;28;20050;-78
2023/03/17 07:03:34;;;;;;;3.63;3.10;;;4.20;99.90;;;;;;6224993;28;20049;-79
2023/03/17 07:06:36;;;;;;;12.73;4.75;;;4.40;99.90;;;;;;6224737;28;20544;-77
2023/03/17 07:09:38;;;;;;;14.27;4.22;;;4.60;99.90;;;;;;6221756;28;20505;-78
2023/03/17 07:12:42;;;;;;;7.95;4.53;;;4.90;99.90;;;;;;6183268;28;20451;-78
2023/03/17 07:15:45;;;;;;;22.90;4.35;;;5.10;99.90;;;;;;6226069;28;20052;-79
2023/03/17 07:18:47;;;;;;;13.43;5.10;;;5.40;99.90;;;;;;6222830;28;20046;-77
2023/03/17 07:21:49;;;;;;;8.45;4.60;;;5.60;99.90;;;;;;6262153;23;20072;-85
2023/03/17 07:24:51;;;;;;;9.25;5.63;;;6.00;99.90;;;;;;6210590;28;20047;-87
2023/03/17 07:27:55;;;;;;;10.23;4.22;;;6.30;99.90;;;;;;6223600;28;20053;-85
2023/03/17 07:30:57;;;;;;;5.63;3.80;;;6.60;99.90;;;;;;6227209;28;20132;-86
2023/03/17 07:33:59;;;;;;;7.25;4.50;;;7.00;99.90;;;;;;6228845;28;20065;-84
2023/03/17 07:37:00;;;;;;;8.90;3.90;;;7.40;99.90;;;;;;6225481;28;20053;-84
2023/03/17 07:40:02;;;;;;;7.47;3.70;;;7.80;99.90;;;;;;6225619;28;20496;-84
2023/03/17 07:43:05;;;;;;;4.90;4.43;;;8.20;99.90;;;;;;6213422;28;20046;-85
2023/03/17 07:46:07;;;;;;;8.55;4.85;;;8.80;99.90;;;;;;6222244;28;20050;-85
2023/03/17 07:49:09;;;;;;;6.47;3.67;;;9.40;99.90;;;;;;6228653;28;20034;-82
2023/03/17 07:52:11;;;;;;;8.15;5.22;;;10.00;99.90;;;;;;6221030;28;20038;-84
2023/03/17 07:55:13;;;;;;;7.57;4.80;;;10.60;99.90;;;;;;6233896;28;20050;-83
2023/03/17 07:58:17;;;;;;;7.20;5.20;;;11.20;99.90;;;;;;6229652;28;20050;-87
2023/03/17 08:01:19;;;;;;;4.93;4.43;;;11.80;99.90;;;;;;6225703;28;20129;-86
2023/03/17 08:04:21;;;;;;;6.30;4.53;;;12.20;99.90;;;;;;6227279;28;20045;-86
2023/03/17 08:07:22;;;;;;;5.78;4.70;;;12.50;99.90;;;;;;6227695;28;20045;-85
2023/03/17 08:10:24;;;;;;;7.57;4.68;;;12.70;99.90;;;;;;6226543;28;20042;-84
2023/03/17 08:13:27;;;;;;;5.35;4.78;;;13.10;99.90;;;;;;6225894;28;20056;-85
2023/03/17 08:16:29;;;;;;;7.68;5.07;;;13.60;99.90;;;;;;6227817;28;20061;-83
2023/03/17 08:19:31;;;;;;;6.93;5.30;;;14.00;99.90;;;;;;6226951;28;20080;-84
2023/03/17 08:22:32;;;;;;;5.82;4.60;;;14.50;99.90;;;;;;6221756;28;20042;-84
2023/03/17 08:25:39;;;;;;;9.63;4.63;;;14.90;99.90;;;;;;6222421;28;20037;-85
2023/03/17 08:28:44;;;;;;;5.90;4.28;;;15.20;99.90;;;;;;6224350;28;20050;-84
2023/03/17 08:31:46;;;;;;;6.60;5.03;;;15.60;99.30;;;;;;6223907;28;20052;-84
2023/03/17 08:34:48;;;;;;;6.65;4.70;;;15.90;98.20;;;;;;6223624;28;20105;-84
2023/03/17 08:37:50;;;;;;;5.18;4.20;;;16.40;97.00;;;;;;6220882;28;20049;-86
2023/03/17 08:40:52;;;;;;;7.03;5.25;;;16.80;95.30;;;;;;6221160;28;20041;-88
2023/03/17 08:43:55;;;;;;;6.00;4.78;;;17.40;93.40;;;;;;6222296;28;20053;-86
2023/03/17 08:46:57;;;;;;;7.43;3.83;;;17.80;91.70;;;;;;6221151;28;20117;-85
2023/03/17 08:49:59;;;;;;;5.60;4.03;;;18.20;90.30;;;;;;6221441;28;20112;-84
2023/03/17 08:53:04;;;;;;;9.52;3.70;;;18.70;87.10;;;;;;6220821;28;20045;-85
2023/03/17 08:56:07;;;;;;;4.95;3.22;;;19.10;84.00;;;;;;6221011;28;20046;-84
2023/03/17 08:59:11;;;;;;;4.90;3.15;;;19.40;81.50;;;;;;6218632;28;20487;-83
2023/03/17 09:02:13;;;;;;;6.63;4.78;;;19.80;78.90;;;;;;6224908;28;20138;-85
2023/03/17 09:05:26;;;;;;;8.30;4.80;;;20.10;76.40;;;;;;6221956;28;20054;-87
2023/03/17 09:08:37;;;;;;;5.63;3.85;;;20.40;74.40;;;;;;6218301;28;20049;-86
2023/03/17 09:11:41;;;;;;;6.40;3.83;;;20.50;72.50;;;;;;6219090;28;20049;-87
2023/03/17 09:15:00;;;;;;;4.60;3.33;;;20.60;70.70;;;;;;6217168;28;20176;-87
2023/03/17 09:18:21;;;;;;;6.18;4.55;;;20.60;68.70;;;;;;6218819;28;20049;-87
2023/03/17 09:21:32;;;;;;;4.50;3.75;;;21.00;68.00;;;;;;6216775;28;20365;-86
2023/03/17 09:24:36;;;;;;;4.20;3.60;;;21.10;65.40;;;;;;6218577;28;20057;-87
2023/03/17 09:27:38;;;;;;;8.32;3.90;;;21.20;63.80;;;;;;6218563;28;20356;-86
2023/03/17 09:30:49;;;;;;;5.85;3.65;;;21.00;63.10;;;;;;6219253;28;20880;-88
2023/03/17 09:33:54;;;;;;;6.40;4.38;;;21.10;62.30;;;;;;6206959;28;20045;-87
2023/03/17 09:37:05;;;;;;;6.70;3.78;;;21.00;62.50;;;;;;6209490;28;20531;-87
2023/03/17 09:40:08;;;;;;;4.60;3.95;;;20.80;62.00;;;;;;6215684;28;20137;-86
2023/03/17 09:43:23;;;;;;;4.97;3.78;;;20.50;62.00;;;;;;6207612;28;20076;-86
2023/03/17 09:46:41;;;;;;;4.55;4.05;;;20.20;61.60;;;;;;6226812;28;20100;-86
2023/03/17 09:49:48;;;;;;;5.87;4.67;;;20.00;61.60;;;;;;6215757;28;20057;-87
2023/03/17 09:52:51;;;;;;;7.15;5.28;;;20.10;62.00;;;;;;6215536;28;20045;-86
2023/03/17 09:55:57;;;;;;;5.18;4.50;;;20.10;61.80;;;;;;6215941;28;20061;-86
2023/03/17 09:59:04;;;;;;;4.88;4.07;;;20.00;61.70;;;;;;6216106;28;20062;-87
2023/03/17 10:02:18;;;;;;;6.73;4.40;;;20.10;61.80;;;;;;6215766;28;20049;-86
2023/03/17 10:05:22;;;;;;;6.60;4.65;;;19.90;61.90;;;;;;6214814;28;20053;-87
2023/03/17 10:08:27;;;;;;;6.10;4.55;;;19.80;62.00;;;;;;6214834;28;20547;-86
2023/03/17 10:11:38;;;;;;;7.88;4.55;;;19.60;61.80;;;;;;6215822;28;20064;-86
2023/03/17 10:14:54;;;;;;;4.72;4.10;;;19.50;61.40;;;;;;6217416;28;20052;-87
2023/03/17 10:17:58;;;;;;;6.97;5.00;;;19.40;61.30;;;;;;6213749;28;20042;-86
2023/03/17 10:21:04;;;;;;;5.93;4.78;;;19.30;61.50;;;;;;6213976;28;20053;-86
2023/03/17 10:24:07;;;;;;;6.22;4.82;;;19.40;61.20;;;;;;6212704;28;20530;-86
2023/03/17 10:27:16;;;;;;;11.73;4.78;;;19.50;61.50;;;;;;6215565;28;20061;-86
2023/03/17 10:30:34;;;;;;;5.20;4.63;;;19.50;61.80;;;;;;6215257;28;20038;-87
2023/03/17 10:33:38;;;;;;;7.20;5.30;;;19.60;61.10;;;;;;6213970;28;20048;-86
2023/03/17 10:36:45;;;;;;;9.55;5.28;;;19.50;61.10;;;;;;6214335;28;20049;-86
2023/03/17 10:39:49;;;;;;;7.00;4.53;;;19.50;61.20;;;;;;6214479;28;20484;-86
2023/03/17 10:43:02;;;;;;;5.63;4.68;;;19.60;61.20;;;;;;6215174;28;20574;-86
2023/03/17 10:46:06;;;;;;;5.78;4.57;;;19.80;61.00;;;;;;6213886;28;20050;-86
2023/03/17 10:49:17;;;;;;;6.30;4.35;;;20.00;60.80;;;;;;6215219;28;20493;-86
2023/03/17 10:52:22;;;;;;;8.35;4.60;;;20.10;60.60;;;;;;6214488;28;20054;-86
2023/03/17 10:55:28;;;;;;;6.70;4.70;;;20.40;60.40;;;;;;6213111;28;20061;-87
2023/03/17 10:58:38;;;;;;;8.55;4.43;;;20.60;59.90;;;;;;6215139;28;20152;-86
2023/03/17 11:01:43;;;;;;;7.38;5.47;;;20.80;59.40;;;;;;6213712;28;20034;-86
2023/03/17 11:04:47;;;;;;;7.65;4.70;;;20.90;59.20;;;;;;6212985;28;20424;-86
2023/03/17 11:07:50;;;;;;;6.25;4.70;;;20.80;59.00;;;;;;6213601;28;20046;-86
2023/03/17 11:10:56;;;;;;;5.97;4.18;;;20.70;58.90;;;;;;6214308;28;20044;-87
2023/03/17 11:14:05;;;;;;;7.32;4.43;;;20.80;58.70;;;;;;6214764;28;20714;-86
2023/03/17 11:17:18;;;;;;;5.60;3.65;;;20.90;58.90;;;;;;6214072;28;20061;-84
2023/03/17 11:20:37;;;;;;;5.07;3.92;;;21.10;58.20;;;;;;6212539;28;20041;-86
2023/03/17 11:23:47;;;;;;;5.18;4.10;;;21.20;57.70;;;;;;6212175;28;20141;-84
2023/03/17 11:26:58;;;;;;;7.13;4.35;;;21.20;57.90;;;;;;6226314;28;20060;-88
2023/03/17 11:30:16;;;;;;;7.28;3.75;;;21.20;57.80;;;;;;6223549;28;20041;-87
2023/03/17 11:33:32;;;;;;;6.28;4.25;;;21.40;57.50;;;;;;6218912;28;20049;-86
2023/03/17 11:36:47;;;;;;;6.38;4.15;;;21.50;57.30;;;;;;6219176;28;20058;-87
2023/03/17 11:39:55;;;;;;;5.22;3.63;;;21.50;57.00;;;;;;6227207;28;20042;-86
2023/03/17 11:43:11;;;;;;;9.73;4.22;;;21.60;57.10;;;;;;6228959;28;20594;-85
2023/03/17 11:46:19;;;;;;;6.05;3.55;;;21.70;56.90;;;;;;6228560;28;20103;-85
2023/03/17 11:49:27;;;;;;;6.13;3.20;;;21.90;56.70;;;;;;6225422;28;20065;-86
2023/03/17 11:52:35;;;;;;;;;;;22.00;56.30;;;;;;6224920;28;20042;-85
2023/03/17 11:55:43;;;;;;;4.38;3.60;;;22.00;56.80;;;;;;6226160;28;19921;-87
2023/03/17 11:58:49;;;;;;;4.47;2.83;;;21.90;56.70;;;;;;6229713;28;20514;-86
2023/03/17 12:01:58;;;;;;;5.72;3.28;;;21.80;56.40;;;;;;6223065;28;20042;-86
2023/03/17 12:05:03;;;;;;;5.28;3.30;;;21.70;56.50;;;;;;6224414;28;20060;-85
2023/03/17 12:08:15;;;;;;;4.25;2.90;;;21.60;56.30;;;;;;6223289;28;20077;-86
2023/03/17 12:11:23;;;;;;;3.35;3.05;;;21.60;56.10;;;;;;6223104;28;20512;-86
2023/03/17 12:14:29;;;;;;;4.90;3.60;;;21.60;56.10;;;;;;6225608;28;20081;-86
2023/03/17 12:17:36;;;;;;;3.13;2.65;;;21.60;56.20;;;;;;6222417;28;22873;-86
2023/03/17 12:20:47;;;;;;;6.72;3.13;;;21.70;56.20;;;;;;6222209;28;20042;-85
2023/03/17 12:23:53;;;;;;;5.50;3.28;;;21.60;56.10;;;;;;6221135;28;20042;-86
2023/03/17 12:26:59;;;;;;;7.53;3.65;;;21.70;56.20;;;;;;6223071;28;20045;-84
2023/03/17 12:30:07;;;;;;;11.82;6.55;;;21.70;56.20;;;;;;6223542;28;20046;-85
2023/03/17 12:33:17;;;;;;;8.00;4.60;;;21.60;56.00;;;;;;6221685;28;20042;-84
2023/03/17 12:36:19;;;;;;;5.75;4.03;;;21.50;56.40;;;;;;6222075;28;20049;-84
2023/03/17 12:39:27;;;;;;;5.57;3.50;;;21.50;56.60;;;;;;6221096;28;20053;-84
2023/03/17 12:42:45;;;;;;;4.70;3.10;;;21.40;56.50;;;;;;6223413;28;20050;-85
2023/03/17 12:46:11;;;;;;;7.15;4.05;;;21.60;56.40;;;;;;6220310;28;20050;-84
2023/03/17 12:49:56;;;;;;;6.10;3.30;;;21.80;56.10;;;;;;6218729;28;20053;-84
2023/03/17 12:53:13;;;;;;;4.40;3.13;;;22.20;55.80;;;;;;6220385;28;20049;-84
2023/03/17 12:56:21;;;;;;;4.53;3.00;;;22.80;55.40;;;;;;6219929;28;20120;-85
2023/03/17 12:59:25;;;;;;;3.30;2.78;;;23.30;54.80;;;;;;6219806;28;20404;-85
2023/03/17 13:02:36;;;;;;;5.85;2.63;;;23.60;54.00;;;;;;6223181;28;20151;-85
2023/03/17 13:05:38;;;;;;;2.63;2.30;;;23.70;53.60;;;;;;6222522;28;20053;-85
2023/03/17 13:08:41;;;;;;;5.97;3.38;;;23.90;53.30;;;;;;6225228;28;20046;-85
2023/03/17 13:11:48;;;;;;;4.30;3.45;;;23.80;52.70;;;;;;6226144;28;20054;-87
2023/03/17 13:14:51;;;;;;;3.45;2.83;;;23.70;52.30;;;;;;6229065;28;20054;-85
2023/03/17 13:18:22;;;;;;;5.15;2.92;;;23.70;52.60;;;;;;6227716;28;20065;-85
2023/03/17 13:21:25;;;;;;;4.13;2.65;;;23.70;52.10;;;;;;6227276;28;20057;-86
2023/03/17 13:24:45;;;;;;;5.22;3.10;;;23.80;52.20;;;;;;6225679;28;20411;-86
2023/03/17 13:27:48;;;;;;;4.30;2.63;;;23.80;52.20;;;;;;6226379;28;20124;-84
2023/03/17 13:31:10;;;;;;;4.80;3.60;;;23.90;52.30;;;;;;6226265;28;20085;-86
2023/03/17 13:34:14;;;;;;;11.13;4.07;;;24.00;51.90;;;;;;6222997;28;20049;-85
2023/03/17 13:37:25;;;;;;;5.95;3.58;;;24.00;52.00;;;;;;6222562;28;20627;-84
2023/03/17 13:40:34;;;;;;;10.32;4.05;;;24.00;51.70;;;;;;6221607;28;20136;-84
2023/03/17 13:43:51;;;;;;;4.40;3.25;;;24.00;51.40;;;;;;6220103;28;20057;-85
2023/03/17 13:46:53;;;;;;;6.23;3.37;;;24.00;51.20;;;;;;6218764;28;20056;-85
2023/03/17 13:50:03;;;;;;;10.55;6.65;;;23.90;51.40;;;;;;6222024;28;20096;-84
2023/03/17 13:53:10;;;;;;;14.23;8.30;;;23.80;51.10;;;;;;6220923;28;20050;-84
2023/03/17 13:56:18;;;;;;;8.40;4.15;;;23.60;50.80;;;;;;6233380;23;20582;-78
2023/03/17 13:59:23;;;;;;;6.85;3.83;;;23.40;50.80;;;;;;6217051;28;20470;-80
2023/03/17 14:02:30;;;;;;;7.65;6.88;;;23.20;51.10;;;;;;6217256;28;20042;-78
2023/03/17 14:05:36;;;;;;;5.88;4.07;;;23.10;51.70;;;;;;6217346;28;20046;-79
2023/03/17 14:08:43;;;;;;;8.10;3.83;;;23.00;51.90;;;;;;6216151;28;20575;-79
2023/03/17 14:11:47;;;;;;;8.07;4.00;;;22.80;51.90;;;;;;6217886;28;20045;-80
2023/03/17 14:14:56;;;;;;;5.18;3.30;;;22.70;52.20;;;;;;6216612;28;20064;-79
2023/03/17 14:18:03;;;;;;;7.35;4.45;;;22.50;52.50;;;;;;6217979;28;20054;-78
2023/03/17 14:21:08;;;;;;;7.15;5.68;;;22.50;52.70;;;;;;6215173;28;20042;-78
2023/03/17 14:24:23;;;;;;;6.45;3.90;;;22.40;52.80;;;;;;6214950;28;20679;-78
2023/03/17 14:27:26;;;;;;;6.70;3.65;;;22.50;52.80;;;;;;6215694;28;20129;-79
2023/03/17 14:30:31;;;;;;;6.25;3.63;;;22.30;52.80;;;;;;6216716;28;20505;-79
2023/03/17 14:33:37;;;;;;;13.32;4.65;;;22.20;53.20;;;;;;6217480;28;20046;-79
2023/03/17 14:36:38;;;;;;;10.05;3.80;;;22.10;53.10;;;;;;6219448;28;20408;-79
2023/03/17 14:39:45;;;;;;;3.88;2.53;;;22.00;53.50;;;;;;6219326;28;20061;-79
2023/03/17 14:42:47;;;;;;;12.05;7.10;;;21.90;53.60;;;;;;6221673;28;20057;-79
2023/03/17 14:45:52;;;;;;;26.50;23.65;;;21.70;53.80;;;;;;6213725;28;20056;-78
2023/03/17 14:48:59;;;;;;;11.45;9.30;;;21.50;54.00;;;;;;6215342;28;20045;-79
2023/03/17 14:52:01;;;;;;;5.20;3.72;;;21.30;54.00;;;;;;6219146;28;20049;-79
2023/03/17 14:55:05;;;;;;;7.95;3.97;;;21.10;54.30;;;;;;6221236;28;20050;-79
2023/03/17 14:58:09;;;;;;;5.70;3.40;;;20.90;54.50;;;;;;6220318;28;20050;-78
2023/03/17 15:01:16;;;;;;;7.75;3.40;;;20.70;54.60;;;;;;6213651;28;20511;-78
2023/03/17 15:04:21;;;;;;;12.85;8.55;;;20.40;54.90;;;;;;6217034;28;20054;-79
2023/03/17 15:07:30;;;;;;;7.50;4.18;;;20.30;55.30;;;;;;6217730;28;21368;-80
2023/03/17 15:10:41;;;;;;;6.53;3.90;;;20.10;55.80;;;;;;6218596;28;20041;-80
2023/03/17 15:13:43;;;;;;;7.75;3.28;;;19.80;56.10;;;;;;6227139;28;20048;-79
2023/03/17 15:16:49;;;;;;;5.47;3.97;;;19.70;56.50;;;;;;6225584;28;20061;-79
2023/03/17 15:19:53;;;;;;;8.43;3.92;;;19.50;56.70;;;;;;6227336;28;20052;-79
2023/03/17 15:22:58;;;;;;;7.13;2.95;;;19.30;57.00;;;;;;6225081;28;20061;-79
2023/03/17 15:26:06;;;;;;;4.53;2.78;;;19.10;57.30;;;;;;6225305;28;20052;-79
2023/03/17 15:29:07;;;;;;;;;;;18.90;58.10;;;;;;6225618;28;20136;-79
2023/03/17 15:32:16;;;;;;;3.53;2.60;;;18.80;58.30;;;;;;6223433;28;19921;-79
2023/03/17 15:35:18;;;;;;;5.28;2.70;;;18.70;58.50;;;;;;6221933;28;20046;-79
2023/03/17 15:38:20;;;;;;;5.00;2.80;;;18.60;58.90;;;;;;6224504;28;20061;-79
2023/03/17 15:41:22;;;;;;;11.10;3.20;;;18.50;59.30;;;;;;6224009;28;20415;-79
2023/03/17 15:44:23;;;;;;;3.03;2.65;;;18.40;59.90;;;;;;6221313;28;20044;-79
2023/03/17 15:47:28;;;;;;;3.28;2.70;;;18.30;60.40;;;;;;6232055;28;20547;-79
2023/03/17 15:50:32;;;;;;;4.90;3.10;;;18.20;60.80;;;;;;6227243;28;20064;-81
2023/03/17 15:53:34;;;;;;;4.45;2.45;;;18.20;61.10;;;;;;6220675;28;20092;-79
2023/03/17 15:56:37;;;;;;;4.65;3.05;;;18.10;61.10;;;;;;6218962;28;20045;-80
2023/03/17 15:59:39;;;;;;;5.82;2.20;;;18.10;61.20;;;;;;6222391;28;20100;-81
2023/03/17 16:02:42;;;;;;;3.58;2.65;;;18.00;61.40;;;;;;6222795;28;20624;-79
2023/03/17 16:05:43;;;;;;;4.03;3.15;;;18.00;61.80;;;;;;6223754;28;20038;-78
2023/03/17 16:08:46;;;;;;;4.38;3.20;;;17.80;61.80;;;;;;6221854;28;20038;-79
2023/03/17 16:11:49;;;;;;;9.60;3.83;;;17.80;61.70;;;;;;6218985;28;20045;-79